Accueil
METAR-TAF:

METAR-TAF

Aéroports :

Buochs, Suisse

latitude: 46-58-28N, longitude: 8-23-49E, altitude: 449 m

Observation

Le bulletin a été fait il y a 28 minutes, à 09:50 UTC
Vent 4 kt de sud-ouest
Température 0°C
Humidité 74%
Pression 1012 hPa
Visibilité: 6000 m
Ciel couvert à une hauteur de 1800 ft

METAR: LSZC 240950Z AUTO 23004KT 6000 OVC018 00/M04 Q1012

Heure: 11:18 (10:18 UTC)

Prévision

Le bulletin a été fait il y a 19 heures et 53 minutes, à 14:25 UTC
Prévision valable du 23 à 15 UTC au 23 à 24 UTC
Vent 3 kt de direction variable
Visibilité: 8000 m
Ciel couvert à une hauteur de 2100 ft
Probabilité 40% :
Temporairement
du 23 à 15 UTC au 23 à 24 UTC
neige faible
Probabilité 40% :
Temporairement
du 23 à 19 UTC au 23 à 24 UTC
Visibilité: 4000 m
Nuages fragmentés à une hauteur de 1200 ft
brume

TAF: LSZC 231425Z 2315/2324 VRB03KT 8000 OVC021 PROB40 TEMPO 2315/2324 -SN PROB40 TEMPO 2319/2324 4000 BR BKN012

Observations et prévisions météorologiques de plus de 4000 aéroports (messages METAR et TAF).

Les stations disponibles sont représentées par des disques jaunes et rouges sur la carte.

Passer la souris dessus pour voir le nom de la station.

Cliquer dessus pour voir les observations et prévisions météorologiques.

Pour changer de carte: cliquez sur les boutons verts avec une croix noire pour zoomer, sur le bouton vert avec un tiret pour effectuer un zoom arrière, ou sur les flèches vertes pour les cartes adjacentes.


METAR-TAF: